Time;durP1;ratioP1;P1;durP2;ratioP2;P2;SDS_P1;SDS_P2;PMS_P1;PMS_P2;Temp;Humidity;BMP_temperature;BMP_pressure;BME280_temperature;BME280_humidity;BME280_pressure;Samples;Min_cycle;Max_cycle;Signal;HPM_P1;HPM_P2
2022/07/31 00:00:02;;;;;;;;;;;25.20;79.60;;;;;;5035363;28;19975;-61
2022/07/31 00:02:28;;;;;;;;;;;25.10;79.50;;;;;;5048320;28;19974;-61
2022/07/31 00:04:53;;;;;;;;;;;25.20;79.50;;;;;;5052977;28;19980;-62
2022/07/31 00:07:19;;;;;;;;;;;25.20;79.40;;;;;;5034908;28;19928;-67
2022/07/31 00:09:44;;;;;;;;;;;25.30;79.30;;;;;;5037417;28;20015;-62
2022/07/31 00:12:10;;;;;;;;;;;25.10;79.20;;;;;;5050524;28;19970;-61
2022/07/31 00:14:36;;;;;;;;;;;25.20;79.30;;;;;;5055064;28;20008;-61
2022/07/31 00:17:01;;;;;;;;;;;25.40;79.60;;;;;;5037476;28;20505;-61
2022/07/31 00:19:27;;;;;;;;;;;25.10;79.40;;;;;;5040837;28;20062;-61
2022/07/31 00:21:52;;;;;;;;;;;25.30;79.50;;;;;;5050246;28;20276;-61
2022/07/31 00:24:18;;;;;;;;;;;25.20;79.30;;;;;;5074618;28;19924;-61
2022/07/31 00:26:44;;;;;;;;;;;25.40;79.30;;;;;;5074720;28;19924;-62
2022/07/31 00:29:09;;;;;;;;;;;25.30;79.40;;;;;;5063255;28;19975;-61
2022/07/31 00:31:35;;;;;;;;;;;25.10;79.10;;;;;;5034848;28;19925;-61
2022/07/31 00:34:01;;;;;;;;;;;25.20;79.30;;;;;;5048354;28;19928;-62
2022/07/31 00:36:26;;;;;;;;;;;25.30;79.00;;;;;;5055227;28;20248;-63
2022/07/31 00:38:52;;;;;;;;;;;25.30;79.30;;;;;;5047838;28;19921;-61
2022/07/31 00:41:18;;;;;;;;;;;25.30;79.00;;;;;;5052829;28;20355;-61
2022/07/31 00:43:43;;;;;;;;;;;25.30;79.20;;;;;;5039810;28;20345;-61
2022/07/31 00:46:09;;;;;;;;;;;25.00;79.00;;;;;;5046128;28;19929;-61
2022/07/31 00:48:34;;;;;;;;;;;25.30;79.20;;;;;;5049880;28;19925;-61
2022/07/31 00:51:00;;;;;;;;;;;25.30;79.10;;;;;;5034469;28;20019;-61
2022/07/31 00:53:26;;;;;;;;;;;25.20;79.30;;;;;;5044001;28;20358;-63
2022/07/31 00:55:51;;;;;;;;;;;25.20;79.00;;;;;;5054249;28;20286;-61
2022/07/31 00:58:17;;;;;;;;;;;25.30;79.30;;;;;;5043047;28;19925;-61
2022/07/31 01:00:43;;;;;;;;;;;25.10;78.90;;;;;;5054277;28;19956;-61
2022/07/31 01:03:08;;;;;;;;;;;25.20;79.10;;;;;;5058515;28;19925;-63
2022/07/31 01:05:34;;;;;;;;;;;25.10;79.00;;;;;;5038363;28;19936;-61
2022/07/31 01:08:00;;;;;;;;;;;25.20;79.20;;;;;;5050285;28;20294;-61
2022/07/31 01:10:47;;;;;;;;;;;24.80;78.50;;;;;;5038587;28;19925;-62
2022/07/31 01:13:15;;;;;;;;;;;25.20;77.90;;;;;;5066987;28;20331;-61
2022/07/31 01:15:41;;;;;;;;;;;25.40;79.50;;;;;;5047024;28;20019;-62
2022/07/31 01:18:06;;;;;;;;;;;25.20;79.10;;;;;;5053765;28;20378;-61
2022/07/31 01:20:32;;;;;;;;;;;25.10;79.00;;;;;;5040486;28;19927;-61
2022/07/31 01:22:57;;;;;;;;;;;25.10;79.10;;;;;;5064033;28;20008;-61
2022/07/31 01:25:32;;;;;;;;;;;25.30;79.00;;;;;;5045720;28;19932;-61
2022/07/31 01:28:07;;;;;;;;;;;24.90;77.70;;;;;;5053872;28;19925;-61
2022/07/31 01:30:42;;;;;;;;;;;25.00;77.80;;;;;;5052232;28;19924;-62
2022/07/31 01:33:09;;;;;;;;;;;25.10;79.20;;;;;;5049115;28;19925;-61
2022/07/31 01:35:38;;;;;;;;;;;25.10;79.30;;;;;;5044546;28;19940;-61
2022/07/31 01:38:07;;;;;;;;;;;25.00;79.10;;;;;;5053631;28;19932;-61
2022/07/31 01:40:34;;;;;;;;;;;25.10;79.20;;;;;;5040311;28;19925;-61
2022/07/31 01:43:21;;;;;;;;;;;25.10;79.10;;;;;;5035231;28;19969;-61
2022/07/31 01:45:48;;;;;;;;;;;25.10;79.20;;;;;;5035614;28;19925;-62
2022/07/31 01:48:13;;;;;;;;;;;25.00;79.20;;;;;;5041804;28;19932;-61
2022/07/31 01:50:39;;;;;;;;;;;24.80;78.80;;;;;;5042831;28;19925;-61
2022/07/31 01:53:05;;;;;;;;;;;25.20;79.10;;;;;;5069163;28;20290;-61
2022/07/31 01:55:31;;;;;;;;;;;25.10;79.10;;;;;;5068012;28;19924;-61
2022/07/31 01:57:56;;;;;;;;;;;24.80;78.80;;;;;;5064162;28;19931;-61
2022/07/31 02:00:22;;;;;;;;;;;25.00;78.90;;;;;;5042268;28;20294;-62
2022/07/31 02:02:48;;;;;;;;;;;25.10;79.10;;;;;;5033706;28;19988;-61
2022/07/31 02:05:13;;;;;;;;;;;25.00;79.20;;;;;;5033386;28;19925;-61
2022/07/31 02:07:39;;;;;;;;;;;25.10;79.10;;;;;;5035382;28;19932;-61
2022/07/31 02:10:07;;;;;;;;;;;25.20;79.20;;;;;;5031802;28;20342;-61
2022/07/31 02:12:32;;;;;;;;;;;24.90;78.70;;;;;;5033025;28;20409;-63
2022/07/31 02:14:58;;;;;;;;;;;25.00;79.00;;;;;;5059389;28;20007;-61
2022/07/31 02:17:23;;;;;;;;;;;25.00;78.90;;;;;;5067604;28;20044;-61
2022/07/31 02:19:50;;;;;;;;;;;25.00;78.90;;;;;;5068821;28;19971;-61
2022/07/31 02:22:15;;;;;;;;;;;24.80;79.20;;;;;;5068883;28;20298;-61
2022/07/31 02:24:41;;;;;;;;;;;25.10;79.20;;;;;;5053077;28;19925;-61
2022/07/31 02:27:06;;;;;;;;;;;25.00;79.10;;;;;;5073118;28;19924;-61
2022/07/31 02:29:32;;;;;;;;;;;24.90;79.10;;;;;;5066212;28;19924;-61
2022/07/31 02:31:58;;;;;;;;;;;24.90;78.90;;;;;;5050717;28;20023;-61
2022/07/31 02:34:24;;;;;;;;;;;25.10;79.40;;;;;;5035350;28;19936;-62
2022/07/31 02:36:50;;;;;;;;;;;24.90;79.20;;;;;;5019827;28;19921;-61
2022/07/31 02:39:16;;;;;;;;;;;25.00;79.40;;;;;;5042959;28;19931;-61
2022/07/31 02:41:41;;;;;;;;;;;24.80;79.00;;;;;;5054773;28;20286;-63
2022/07/31 02:44:07;;;;;;;;;;;24.80;79.20;;;;;;5054973;28;20290;-61
2022/07/31 02:46:33;;;;;;;;;;;24.90;79.30;;;;;;5068884;28;20367;-61
2022/07/31 02:48:58;;;;;;;;;;;25.00;79.30;;;;;;5037248;28;20019;-61
2022/07/31 02:51:24;;;;;;;;;;;24.80;79.00;;;;;;5055597;28;19929;-61
2022/07/31 02:53:50;;;;;;;;;;;24.90;79.20;;;;;;5051835;28;19932;-63
2022/07/31 02:56:15;;;;;;;;;;;24.90;79.30;;;;;;5039425;28;20877;-62
2022/07/31 02:58:41;;;;;;;;;;;24.90;79.10;;;;;;5056892;28;20015;-61
2022/07/31 03:01:07;;;;;;;;;;;25.00;79.30;;;;;;5054167;28;19928;-61
2022/07/31 03:03:32;;;;;;;;;;;24.80;79.00;;;;;;5039134;28;20008;-61
2022/07/31 03:05:58;;;;;;;;;;;24.80;79.20;;;;;;5037037;28;20435;-61
2022/07/31 03:08:23;;;;;;;;;;;25.10;79.20;;;;;;5036233;28;19933;-61
2022/07/31 03:10:49;;;;;;;;;;;25.10;79.10;;;;;;5038639;28;19925;-61
2022/07/31 03:13:15;;;;;;;;;;;24.70;78.80;;;;;;5055552;28;19971;-61
2022/07/31 03:15:41;;;;;;;;;;;24.90;79.10;;;;;;5047268;28;19929;-63
2022/07/31 03:18:06;;;;;;;;;;;24.70;79.00;;;;;;5048884;28;19970;-61
2022/07/31 03:20:32;;;;;;;;;;;25.10;79.20;;;;;;5038857;28;20382;-61
2022/07/31 03:22:58;;;;;;;;;;;24.80;79.00;;;;;;5052166;28;19925;-61
2022/07/31 03:25:24;;;;;;;;;;;24.90;79.40;;;;;;5055132;28;20432;-62
2022/07/31 03:27:49;;;;;;;;;;;24.90;79.00;;;;;;5054188;28;19932;-61
2022/07/31 03:30:17;;;;;;;;;;;24.70;79.10;;;;;;5059630;28;20294;-61
2022/07/31 03:32:43;;;;;;;;;;;24.80;79.30;;;;;;5038277;28;19925;-61
2022/07/31 03:35:08;;;;;;;;;;;24.60;79.00;;;;;;5034660;28;20050;-61
2022/07/31 03:37:34;;;;;;;;;;;24.90;79.00;;;;;;5036236;28;19929;-62
2022/07/31 03:39:59;;;;;;;;;;;24.70;79.10;;;;;;5035714;28;20044;-61
2022/07/31 03:42:25;;;;;;;;;;;24.60;79.00;;;;;;5048851;28;19978;-62
2022/07/31 03:44:51;;;;;;;;;;;24.90;79.20;;;;;;5037910;28;19929;-61
2022/07/31 03:47:17;;;;;;;;;;;24.80;79.30;;;;;;5052410;28;20286;-61
2022/07/31 03:49:42;;;;;;;;;;;24.60;79.10;;;;;;5040560;28;20008;-62
2022/07/31 03:52:08;;;;;;;;;;;24.90;79.10;;;;;;5055548;28;19948;-62
2022/07/31 03:54:33;;;;;;;;;;;24.90;79.30;;;;;;5052386;28;19929;-61
2022/07/31 03:56:59;;;;;;;;;;;24.90;79.00;;;;;;5035271;28;19921;-61
2022/07/31 03:59:25;;;;;;;;;;;24.90;79.20;;;;;;5052028;28;20023;-61
2022/07/31 04:01:50;;;;;;;;;;;24.70;79.00;;;;;;5049332;28;19925;-61
2022/07/31 04:04:16;;;;;;;;;;;24.80;79.00;;;;;;5068898;28;20417;-62
2022/07/31 04:06:42;;;;;;;;;;;24.80;79.20;;;;;;5035024;28;19925;-61
2022/07/31 04:09:07;;;;;;;;;;;24.90;79.10;;;;;;5037843;28;19924;-61
2022/07/31 04:11:33;;;;;;;;;;;24.60;78.70;;;;;;5035862;28;19933;-62
2022/07/31 04:13:59;;;;;;;;;;;24.90;79.20;;;;;;5035172;28;20349;-61
2022/07/31 04:16:24;;;;;;;;;;;25.20;79.20;;;;;;5053093;28;19931;-61
2022/07/31 04:18:50;;;;;;;;;;;24.70;79.20;;;;;;5051130;28;19925;-61
2022/07/31 04:21:15;;;;;;;;;;;24.70;79.20;;;;;;5049011;28;20403;-61
2022/07/31 04:23:41;;;;;;;;;;;25.00;79.20;;;;;;5050821;28;19925;-61
2022/07/31 04:26:07;;;;;;;;;;;24.70;79.20;;;;;;5040466;28;19931;-61
2022/07/31 04:28:32;;;;;;;;;;;24.70;79.00;;;;;;5059730;28;19963;-61
2022/07/31 04:30:58;;;;;;;;;;;25.00;79.40;;;;;;5037989;28;20291;-61
2022/07/31 04:33:23;;;;;;;;;;;24.60;79.10;;;;;;5033920;28;19928;-61
2022/07/31 04:35:49;;;;;;;;;;;25.10;79.30;;;;;;5049587;28;19925;-61
2022/07/31 04:38:15;;;;;;;;;;;24.70;79.10;;;;;;5066565;28;19932;-61
2022/07/31 04:40:41;;;;;;;;;;;24.90;79.30;;;;;;5044487;28;19921;-61
2022/07/31 04:43:07;;;;;;;;;;;24.60;79.20;;;;;;5041183;28;19986;-60
2022/07/31 04:45:33;;;;;;;;;;;24.80;79.20;;;;;;5037992;28;19972;-61
2022/07/31 04:47:58;;;;;;;;;;;24.90;79.30;;;;;;5034613;28;20429;-61
2022/07/31 04:50:24;;;;;;;;;;;25.00;79.20;;;;;;5044533;28;19929;-66
2022/07/31 04:52:49;;;;;;;;;;;24.90;79.20;;;;;;5043342;28;19924;-66
2022/07/31 04:55:15;;;;;;;;;;;25.00;79.30;;;;;;5052804;28;20374;-66
2022/07/31 04:57:40;;;;;;;;;;;24.60;79.00;;;;;;5052538;28;20046;-66
2022/07/31 05:00:08;;;;;;;;;;;25.00;79.20;;;;;;5053088;28;19929;-66
2022/07/31 05:02:33;;;;;;;;;;;25.30;79.20;;;;;;5038248;28;20074;-66
2022/07/31 05:04:59;;;;;;;;;;;24.60;78.90;;;;;;5045550;28;20015;-66
2022/07/31 05:07:25;;;;;;;;;;;25.10;79.20;;;;;;5054109;28;19932;-66
2022/07/31 05:09:50;;;;;;;;;;;24.90;78.90;;;;;;5036846;28;19948;-66
2022/07/31 05:12:16;;;;;;;;;;;24.90;78.90;;;;;;5044369;28;20370;-65
2022/07/31 05:14:41;;;;;;;;;;;25.00;78.50;;;;;;5067511;28;19925;-66
2022/07/31 05:17:07;;;;;;;;;;;25.30;79.00;;;;;;5050651;28;19925;-66
2022/07/31 05:19:33;;;;;;;;;;;25.20;78.50;;;;;;5037989;28;19925;-66
2022/07/31 05:21:58;;;;;;;;;;;25.40;78.60;;;;;;5042916;28;19925;-66
2022/07/31 05:24:24;;;;;;;;;;;25.40;78.40;;;;;;5053575;28;19929;-67
2022/07/31 05:26:49;;;;;;;;;;;25.60;78.30;;;;;;5051486;28;19925;-61
2022/07/31 05:29:15;;;;;;;;;;;25.50;78.20;;;;;;5039536;28;19925;-62
2022/07/31 05:31:41;;;;;;;;;;;25.40;77.90;;;;;;5035205;28;19924;-62
2022/07/31 05:34:06;;;;;;;;;;;25.40;78.00;;;;;;5054173;28;19925;-61
2022/07/31 05:36:32;;;;;;;;;;;25.40;77.90;;;;;;5050690;28;20340;-61
2022/07/31 05:38:58;;;;;;;;;;;25.40;78.00;;;;;;5051151;28;21559;-61
2022/07/31 05:41:23;;;;;;;;;;;25.40;77.80;;;;;;5048947;28;20506;-61
2022/07/31 05:43:49;;;;;;;;;;;25.70;78.70;;;;;;5050363;28;19921;-61
2022/07/31 05:46:16;;;;;;;;;;;25.30;77.70;;;;;;5033833;28;19925;-62
2022/07/31 05:48:42;;;;;;;;;;;25.40;78.00;;;;;;5033779;28;19921;-61
2022/07/31 05:51:11;;;;;;;;;;;25.40;78.10;;;;;;5036131;28;20417;-62
2022/07/31 05:53:37;;;;;;;;;;;25.50;78.20;;;;;;5033934;28;19932;-61
2022/07/31 05:56:03;;;;;;;;;;;25.70;78.00;;;;;;5048091;28;19925;-63
2022/07/31 05:58:29;;;;;;;;;;;25.50;77.60;;;;;;5033635;28;19931;-61
2022/07/31 06:00:55;;;;;;;;;;;25.60;78.00;;;;;;5035791;28;20418;-61
2022/07/31 06:03:23;;;;;;;;;;;25.40;77.80;;;;;;5038347;28;19929;-61
2022/07/31 06:05:49;;;;;;;;;;;25.50;76.70;;;;;;5040132;28;20536;-61
2022/07/31 06:08:15;;;;;;;;;;;25.50;78.00;;;;;;5057807;28;19925;-62
2022/07/31 06:10:41;;;;;;;;;;;25.50;77.60;;;;;;5038991;28;20031;-61
2022/07/31 06:13:06;;;;;;;;;;;25.50;77.70;;;;;;5045495;28;20007;-61
2022/07/31 06:15:32;;;;;;;;;;;25.90;78.00;;;;;;5054347;28;19925;-61
2022/07/31 06:17:58;;;;;;;;;;;25.50;77.70;;;;;;5045841;28;19925;-61
2022/07/31 06:20:23;;;;;;;;;;;25.70;77.80;;;;;;5042462;28;19928;-61
2022/07/31 06:22:49;;;;;;;;;;;25.60;77.80;;;;;;5039223;28;19933;-61
2022/07/31 06:25:15;;;;;;;;;;;25.50;77.50;;;;;;5042995;28;19971;-61
2022/07/31 06:27:41;;;;;;;;;;;25.70;78.00;;;;;;5046929;28;19983;-61
2022/07/31 06:30:06;;;;;;;;;;;25.70;77.80;;;;;;5037135;28;20442;-61
2022/07/31 06:32:32;;;;;;;;;;;25.60;77.60;;;;;;5048331;28;19925;-61
2022/07/31 06:34:58;;;;;;;;;;;25.60;77.90;;;;;;5056722;28;20019;-61
2022/07/31 06:37:24;;;;;;;;;;;25.90;78.10;;;;;;5055776;28;19929;-61
2022/07/31 06:39:50;;;;;;;;;;;25.50;77.80;;;;;;5036754;28;19972;-61
2022/07/31 06:42:23;;;;;;;;;;;25.50;78.10;;;;;;5038500;28;20022;-61
2022/07/31 06:44:48;;;;;;;;;;;25.60;76.90;;;;;;5037044;28;20345;-63
2022/07/31 06:47:15;;;;;;;;;;;25.90;78.30;;;;;;5036808;28;19925;-61
2022/07/31 06:49:40;;;;;;;;;;;25.50;78.20;;;;;;5036946;28;19987;-61
2022/07/31 06:52:06;;;;;;;;;;;25.70;78.00;;;;;;5037052;28;20366;-61
2022/07/31 06:54:32;;;;;;;;;;;25.70;77.80;;;;;;5044363;28;20304;-61
2022/07/31 06:56:57;;;;;;;;;;;25.70;78.00;;;;;;5053362;28;19925;-61
2022/07/31 06:59:23;;;;;;;;;;;25.60;78.00;;;;;;5047227;28;20441;-61
2022/07/31 07:01:48;;;;;;;;;;;25.60;77.90;;;;;;5054536;28;20003;-62
2022/07/31 07:04:14;;;;;;;;;;;25.60;78.00;;;;;;5054170;28;19932;-61
2022/07/31 07:06:39;;;;;;;;;;;25.70;78.00;;;;;;5054996;28;19925;-61
2022/07/31 07:09:05;;;;;;;;;;;25.60;78.10;;;;;;5055885;28;20306;-61
2022/07/31 07:11:31;;;;;;;;;;;25.70;78.00;;;;;;5046962;28;20024;-61
2022/07/31 07:13:56;;;;;;;;;;;25.50;77.60;;;;;;5037455;28;19932;-61
2022/07/31 07:16:22;;;;;;;;;;;25.50;78.00;;;;;;5035021;28;20395;-61
2022/07/31 07:18:48;;;;;;;;;;;25.70;78.10;;;;;;5037830;28;19932;-61
2022/07/31 07:21:13;;;;;;;;;;;25.50;77.80;;;;;;5054029;28;19978;-61
2022/07/31 07:23:39;;;;;;;;;;;26.00;78.20;;;;;;5055382;28;19928;-61
2022/07/31 07:26:05;;;;;;;;;;;25.90;78.00;;;;;;5037629;28;19931;-61
2022/07/31 07:28:30;;;;;;;;;;;25.50;77.80;;;;;;5052080;28;20444;-61
2022/07/31 07:30:56;;;;;;;;;;;25.80;77.90;;;;;;5042799;28;20322;-66
2022/07/31 07:33:21;;;;;;;;;;;25.80;77.90;;;;;;5043658;28;20382;-65
2022/07/31 07:35:47;;;;;;;;;;;25.70;77.50;;;;;;5037636;28;19925;-66
2022/07/31 07:38:13;;;;;;;;;;;25.60;77.70;;;;;;5046154;28;19929;-62
2022/07/31 07:40:39;;;;;;;;;;;25.80;77.70;;;;;;5055664;28;19931;-63
2022/07/31 07:43:04;;;;;;;;;;;25.70;77.70;;;;;;5052502;28;19932;-62
2022/07/31 07:45:30;;;;;;;;;;;26.10;77.80;;;;;;5051639;28;19925;-68
2022/07/31 07:47:56;;;;;;;;;;;25.80;77.70;;;;;;5043356;28;19982;-67
2022/07/31 07:50:21;;;;;;;;;;;25.70;77.50;;;;;;5058438;28;20286;-67
2022/07/31 07:52:47;;;;;;;;;;;26.00;77.90;;;;;;5037355;28;20433;-68
2022/07/31 07:55:13;;;;;;;;;;;26.00;77.60;;;;;;5050345;28;20391;-67
2022/07/31 07:57:38;;;;;;;;;;;25.90;77.70;;;;;;5036481;28;19925;-67
2022/07/31 08:00:05;;;;;;;;;;;25.80;77.60;;;;;;5051817;28;19925;-67
2022/07/31 08:02:31;;;;;;;;;;;25.90;77.30;;;;;;5064834;28;19924;-67
2022/07/31 08:04:57;;;;;;;;;;;25.90;77.60;;;;;;5049856;28;19977;-67
2022/07/31 08:07:29;;;;;;;;;;;26.00;77.80;;;;;;5057087;28;19932;-67
2022/07/31 08:09:55;;;;;;;;;;;26.10;76.60;;;;;;5065222;28;19924;-67
2022/07/31 08:12:21;;;;;;;;;;;25.90;77.90;;;;;;5074858;28;19924;-67
2022/07/31 08:14:46;;;;;;;;;;;25.90;77.40;;;;;;5068857;28;20015;-67
2022/07/31 08:17:12;;;;;;;;;;;26.00;77.70;;;;;;5068922;28;21527;-65
2022/07/31 08:19:38;;;;;;;;;;;26.00;77.30;;;;;;5067516;28;19970;-68
2022/07/31 08:22:03;;;;;;;;;;;26.00;77.50;;;;;;5072676;28;19987;-61
2022/07/31 08:24:29;;;;;;;;;;;25.90;77.20;;;;;;5068593;28;19932;-62
2022/07/31 08:29:39;;;;;;;;;;;25.90;76.50;;;;;;5054504;28;19931;-62
2022/07/31 08:32:05;;;;;;;;;;;26.00;77.60;;;;;;5054739;28;20282;-62
2022/07/31 08:34:31;;;;;;;;;;;25.80;76.90;;;;;;5054768;28;19932;-63
2022/07/31 08:36:57;;;;;;;;;;;25.90;77.40;;;;;;5048831;28;19925;-67
2022/07/31 08:39:23;;;;;;;;;;;25.90;77.60;;;;;;5036518;28;19994;-62
2022/07/31 08:41:49;;;;;;;;;;;26.00;77.40;;;;;;5052273;28;20302;-61
2022/07/31 08:44:14;;;;;;;;;;;25.90;77.10;;;;;;5052578;28;19939;-64
2022/07/31 08:46:40;;;;;;;;;;;26.00;77.40;;;;;;5049705;28;19970;-63
2022/07/31 08:49:06;;;;;;;;;;;25.90;77.30;;;;;;5049943;28;19960;-64
2022/07/31 08:51:35;;;;;;;;;;;25.80;77.30;;;;;;5047721;28;19925;-61
2022/07/31 08:54:05;;;;;;;;;;;26.00;76.00;;;;;;5036809;28;20375;-66
2022/07/31 08:56:32;;;;;;;;;;;26.10;76.00;;;;;;5053754;28;19932;-63
2022/07/31 08:58:58;;;;;;;;;;;26.30;77.50;;;;;;5057079;28;19925;-62
2022/07/31 09:01:24;;;;;;;;;;;26.20;77.00;;;;;;5049503;28;19961;-63
2022/07/31 09:03:49;;;;;;;;;;;26.50;77.40;;;;;;5060109;28;19925;-63
2022/07/31 09:06:15;;;;;;;;;;;26.30;77.00;;;;;;5068566;28;19925;-64
2022/07/31 09:08:40;;;;;;;;;;;26.30;77.00;;;;;;5071114;28;19924;-62
2022/07/31 09:11:07;;;;;;;;;;;26.20;76.60;;;;;;5039950;28;19971;-63
2022/07/31 09:13:36;;;;;;;;;;;26.30;77.00;;;;;;5052213;28;19931;-65
2022/07/31 09:16:02;;;;;;;;;;;26.20;75.90;;;;;;5044411;28;19925;-63
2022/07/31 09:18:28;;;;;;;;;;;26.50;76.90;;;;;;5050485;28;20401;-66
2022/07/31 09:20:55;;;;;;;;;;;26.50;77.30;;;;;;5048843;28;19929;-66
2022/07/31 09:23:21;;;;;;;;;;;26.50;76.80;;;;;;5051683;28;20403;-62
2022/07/31 09:25:53;;;;;;;;;;;26.50;76.70;;;;;;5045517;28;20355;-67
2022/07/31 09:28:19;;;;;;;;;;;26.40;75.30;;;;;;5053741;28;19921;-66
2022/07/31 09:30:53;;;;;;;;;;;26.30;76.50;;;;;;5048022;28;19948;-65
2022/07/31 09:33:20;;;;;;;;;;;26.70;75.60;;;;;;5044865;28;20005;-63
2022/07/31 09:35:49;;;;;;;;;;;26.50;76.80;;;;;;5048326;28;20386;-61
2022/07/31 09:38:15;;;;;;;;;;;26.60;77.10;;;;;;5039022;28;19925;-64
2022/07/31 09:40:42;;;;;;;;;;;26.40;76.80;;;;;;5037774;28;19931;-62
2022/07/31 09:43:18;;;;;;;;;;;26.50;77.10;;;;;;5053844;28;19924;-62
2022/07/31 09:45:45;;;;;;;;;;;26.20;75.70;;;;;;5042866;28;20031;-62
2022/07/31 09:48:14;;;;;;;;;;;26.40;77.40;;;;;;5048925;28;19925;-63
2022/07/31 09:50:55;;;;;;;;;;;26.30;76.30;;;;;;5033881;28;19925;-63
2022/07/31 09:53:20;;;;;;;;;;;26.30;76.10;;;;;;5042961;28;19932;-62
2022/07/31 09:55:50;;;;;;;;;;;26.50;77.60;;;;;;5034127;28;19921;-62
2022/07/31 09:58:15;;;;;;;;;;;26.40;76.40;;;;;;5053484;28;20346;-63
2022/07/31 10:00:41;;;;;;;;;;;26.10;77.30;;;;;;5040572;28;20017;-65
2022/07/31 10:03:07;;;;;;;;;;;26.10;77.60;;;;;;5057511;28;20366;-67
2022/07/31 10:05:32;;;;;;;;;;;26.20;77.70;;;;;;5063570;28;19932;-69
2022/07/31 10:07:59;;;;;;;;;;;26.10;77.60;;;;;;5053364;28;20442;-67
2022/07/31 10:10:24;;;;;;;;;;;26.30;78.10;;;;;;5068857;28;20290;-69
2022/07/31 10:12:51;;;;;;;;;;;26.20;77.90;;;;;;5050930;28;19929;-70
2022/07/31 10:15:17;;;;;;;;;;;26.10;78.40;;;;;;5032374;28;19925;-62
2022/07/31 10:17:43;;;;;;;;;;;26.30;78.70;;;;;;5036523;28;19999;-63
2022/07/31 10:20:12;;;;;;;;;;;26.10;78.60;;;;;;5048789;28;20015;-62
2022/07/31 10:22:39;;;;;;;;;;;26.20;78.90;;;;;;5070633;28;20306;-61
2022/07/31 10:25:06;;;;;;;;;;;26.20;79.20;;;;;;5066382;28;19924;-62
2022/07/31 10:27:32;;;;;;;;;;;26.00;79.00;;;;;;5055897;28;20371;-62
2022/07/31 10:29:58;;;;;;;;;;;26.00;79.40;;;;;;5072028;28;19995;-61
2022/07/31 10:32:23;;;;;;;;;;;25.80;79.30;;;;;;5071569;28;19934;-62
2022/07/31 10:34:49;;;;;;;;;;;26.00;79.90;;;;;;5062882;28;19940;-62
2022/07/31 10:37:19;;;;;;;;;;;25.80;79.80;;;;;;5038341;28;20358;-68
2022/07/31 10:39:48;;;;;;;;;;;25.90;79.10;;;;;;5047658;28;19932;-69
2022/07/31 10:42:14;;;;;;;;;;;25.90;80.80;;;;;;5046615;28;19929;-61
2022/07/31 10:44:48;;;;;;;;;;;25.90;80.70;;;;;;5055860;28;19926;-61
2022/07/31 10:47:14;;;;;;;;;;;26.00;79.80;;;;;;5054700;28;20332;-65
2022/07/31 10:49:40;;;;;;;;;;;25.90;81.30;;;;;;5039079;28;19937;-62
2022/07/31 10:52:05;;;;;;;;;;;26.00;82.10;;;;;;5056785;28;19982;-62
2022/07/31 10:54:59;;;;;;;;;;;26.00;81.50;;;;;;5052203;28;19976;-64
2022/07/31 10:57:29;;;;;;;;;;;25.80;80.30;;;;;;5052451;28;20007;-62
2022/07/31 10:59:55;;;;;;;;;;;26.00;80.70;;;;;;5052961;28;20279;-63
2022/07/31 11:02:28;;;;;;;;;;;25.80;82.10;;;;;;5052254;28;19926;-63
2022/07/31 11:04:53;;;;;;;;;;;25.80;81.00;;;;;;5065245;28;19932;-65
2022/07/31 11:07:21;;;;;;;;;;;25.70;81.50;;;;;;5048575;28;19924;-64
2022/07/31 11:09:47;;;;;;;;;;;25.70;82.20;;;;;;5055992;28;19932;-64
2022/07/31 11:12:19;;;;;;;;;;;25.60;82.10;;;;;;5062146;28;20348;-63
2022/07/31 11:14:44;;;;;;;;;;;25.90;81.50;;;;;;5058958;28;19929;-66
2022/07/31 11:17:10;;;;;;;;;;;25.60;82.40;;;;;;5052800;28;19925;-66
2022/07/31 11:19:36;;;;;;;;;;;25.60;82.90;;;;;;5050963;28;20264;-65
2022/07/31 11:22:07;;;;;;;;;;;25.40;83.20;;;;;;5049626;28;20421;-68
2022/07/31 11:24:33;;;;;;;;;;;25.70;83.60;;;;;;5049359;28;19936;-66
2022/07/31 11:26:59;;;;;;;;;;;25.50;83.30;;;;;;5050989;28;19925;-65
2022/07/31 11:29:29;;;;;;;;;;;25.70;83.70;;;;;;5053018;28;19933;-62
2022/07/31 11:31:57;;;;;;;;;;;25.40;82.60;;;;;;5037950;28;20681;-64
2022/07/31 11:34:24;;;;;;;;;;;25.30;83.90;;;;;;5046875;28;20437;-62
2022/07/31 11:36:50;;;;;;;;;;;25.30;83.80;;;;;;5072609;28;20325;-63
2022/07/31 11:39:16;;;;;;;;;;;25.40;84.40;;;;;;5072126;28;19928;-63
2022/07/31 11:41:41;;;;;;;;;;;25.30;84.40;;;;;;5069536;28;19986;-66
2022/07/31 11:44:07;;;;;;;;;;;25.40;84.60;;;;;;5065883;28;19987;-63
2022/07/31 11:46:33;;;;;;;;;;;25.40;84.70;;;;;;5061487;28;20318;-62
2022/07/31 11:48:58;;;;;;;;;;;25.40;85.40;;;;;;5067209;28;19932;-64
2022/07/31 11:51:24;;;;;;;;;;;25.10;85.50;;;;;;5063404;28;19924;-69
2022/07/31 11:53:50;;;;;;;;;;;25.00;85.80;;;;;;5067633;28;20574;-61
2022/07/31 11:56:16;;;;;;;;;;;25.10;85.20;;;;;;5045957;28;19932;-63
2022/07/31 11:58:52;;;;;;;;;;;25.10;86.30;;;;;;5073474;28;19932;-66
2022/07/31 12:01:18;;;;;;;;;;;25.00;85.40;;;;;;5062666;28;19924;-65
2022/07/31 12:03:46;;;;;;;;;;;24.90;86.50;;;;;;5070057;28;19925;-69
2022/07/31 12:06:12;;;;;;;;;;;25.00;86.80;;;;;;5055399;28;20389;-62
2022/07/31 12:08:38;;;;;;;;;;;25.10;87.50;;;;;;5071705;28;19931;-65
2022/07/31 12:11:04;;;;;;;;;;;24.80;87.40;;;;;;5068300;28;20408;-63
2022/07/31 12:13:32;;;;;;;;;;;24.60;87.40;;;;;;5055565;28;21594;-67
2022/07/31 12:16:05;;;;;;;;;;;24.90;87.40;;;;;;5059322;28;19955;-65
2022/07/31 12:18:47;;;;;;;;;;;24.90;86.40;;;;;;5055157;28;19999;-62
2022/07/31 12:21:12;;;;;;;;;;;24.90;86.40;;;;;;5042513;28;19925;-64
2022/07/31 12:23:42;;;;;;;;;;;24.80;87.70;;;;;;5051170;28;19932;-66
2022/07/31 12:26:12;;;;;;;;;;;25.20;88.80;;;;;;5053722;28;20283;-61
2022/07/31 12:28:38;;;;;;;;;;;25.00;86.50;;;;;;5050548;28;19925;-63
2022/07/31 12:31:03;;;;;;;;;;;25.10;87.70;;;;;;5042729;28;19929;-63
2022/07/31 12:33:38;;;;;;;;;;;25.00;87.90;;;;;;5040542;28;19929;-68
2022/07/31 12:36:10;;;;;;;;;;;25.10;88.10;;;;;;5057572;28;19928;-65
2022/07/31 12:38:36;;;;;;;;;;;24.60;88.40;;;;;;5043782;28;19935;-64
2022/07/31 12:41:04;;;;;;;;;;;25.10;88.50;;;;;;5052773;28;19925;-65
2022/07/31 12:43:31;;;;;;;;;;;25.00;88.80;;;;;;5046727;28;19924;-65
2022/07/31 12:45:59;;;;;;;;;;;24.80;88.60;;;;;;5047335;28;20329;-65
2022/07/31 12:48:25;;;;;;;;;;;24.90;88.60;;;;;;5050653;28;20000;-65
2022/07/31 12:50:51;;;;;;;;;;;24.90;88.70;;;;;;5052166;28;20015;-65
2022/07/31 12:53:16;;;;;;;;;;;25.10;88.60;;;;;;5065937;28;20019;-65
2022/07/31 12:55:42;;;;;;;;;;;24.80;88.00;;;;;;5045806;28;19928;-62
2022/07/31 12:58:08;;;;;;;;;;;25.00;89.30;;;;;;5043894;28;19925;-61
2022/07/31 13:00:34;;;;;;;;;;;24.70;88.10;;;;;;5061248;28;19968;-62
2022/07/31 13:02:59;;;;;;;;;;;25.10;89.10;;;;;;5061296;28;19935;-61
2022/07/31 13:05:26;;;;;;;;;;;24.90;88.90;;;;;;5051546;28;20407;-71
2022/07/31 13:07:51;;;;;;;;;;;24.90;89.20;;;;;;5047914;28;20024;-69
2022/07/31 13:10:18;;;;;;;;;;;24.80;89.30;;;;;;5050507;28;20012;-66
2022/07/31 13:12:44;;;;;;;;;;;24.80;89.50;;;;;;5049523;28;19929;-63
2022/07/31 13:15:10;;;;;;;;;;;24.90;89.70;;;;;;5051778;28;19943;-62
2022/07/31 13:17:36;;;;;;;;;;;24.80;90.20;;;;;;5052187;28;19925;-62
2022/07/31 13:20:03;;;;;;;;;;;24.60;90.40;;;;;;5051962;28;19924;-62
2022/07/31 13:22:28;;;;;;;;;;;24.70;90.70;;;;;;5049184;28;19928;-63
2022/07/31 13:24:54;;;;;;;;;;;24.60;90.80;;;;;;5045191;28;19933;-62
2022/07/31 13:27:20;;;;;;;;;;;24.60;91.00;;;;;;5052466;28;19932;-64
2022/07/31 13:29:46;;;;;;;;;;;24.70;91.30;;;;;;5052197;28;19932;-62
2022/07/31 13:32:12;;;;;;;;;;;24.20;91.20;;;;;;5061655;28;19982;-64
2022/07/31 13:34:37;;;;;;;;;;;24.30;91.30;;;;;;5056363;28;19933;-62
2022/07/31 13:37:03;;;;;;;;;;;24.40;91.30;;;;;;5047337;28;19936;-62
2022/07/31 13:39:28;;;;;;;;;;;24.40;91.50;;;;;;5043583;28;19928;-67
2022/07/31 13:41:54;;;;;;;;;;;24.60;91.40;;;;;;5031226;28;19924;-65
2022/07/31 13:44:20;;;;;;;;;;;24.10;91.30;;;;;;5049061;28;19933;-65
2022/07/31 13:46:45;;;;;;;;;;;24.20;91.60;;;;;;5061804;28;20382;-62
2022/07/31 13:49:11;;;;;;;;;;;24.40;91.60;;;;;;5055504;28;20298;-62
2022/07/31 13:51:37;;;;;;;;;;;24.00;91.60;;;;;;5065593;28;19925;-62
2022/07/31 13:54:03;;;;;;;;;;;24.30;91.70;;;;;;5048203;28;19929;-62
2022/07/31 13:56:29;;;;;;;;;;;24.40;91.90;;;;;;5049258;28;19932;-64
2022/07/31 13:58:55;;;;;;;;;;;24.20;91.80;;;;;;5053059;28;20371;-64
2022/07/31 14:01:21;;;;;;;;;;;24.10;91.80;;;;;;5055937;28;19925;-62
2022/07/31 14:03:47;;;;;;;;;;;24.10;91.80;;;;;;5054355;28;20491;-61
2022/07/31 14:06:12;;;;;;;;;;;24.00;91.80;;;;;;5058610;28;19931;-62
2022/07/31 14:08:38;;;;;;;;;;;24.10;91.80;;;;;;5061739;28;20362;-63
2022/07/31 14:11:04;;;;;;;;;;;24.50;91.90;;;;;;5045687;28;20019;-61
2022/07/31 14:13:29;;;;;;;;;;;24.10;91.70;;;;;;5052133;28;19925;-70